sensor_id;sensor_type;location;lat;lon;timestamp;P1;durP1;ratioP1;P2;durP2;ratioP2
35943;SDS011;22029;54.774;9.434;2023-07-08T00:01:20;0.10;;;0.10;;
35943;SDS011;22029;54.774;9.434;2023-07-08T00:03:50;0.10;;;0.10;;
35943;SDS011;22029;54.774;9.434;2023-07-08T00:06:21;0.10;;;0.10;;
35943;SDS011;22029;54.774;9.434;2023-07-08T00:08:51;0.10;;;0.10;;
35943;SDS011;22029;54.774;9.434;2023-07-08T00:11:23;0.10;;;0.10;;
35943;SDS011;22029;54.774;9.434;2023-07-08T00:13:53;0.00;;;0.00;;
35943;SDS011;22029;54.774;9.434;2023-07-08T00:16:23;0.10;;;0.10;;
35943;SDS011;22029;54.774;9.434;2023-07-08T00:18:53;0.10;;;0.10;;
35943;SDS011;22029;54.774;9.434;2023-07-08T00:21:22;0.10;;;0.10;;
35943;SDS011;22029;54.774;9.434;2023-07-08T00:23:52;0.10;;;0.10;;
35943;SDS011;22029;54.774;9.434;2023-07-08T00:26:25;0.10;;;0.10;;
35943;SDS011;22029;54.774;9.434;2023-07-08T00:28:55;0.10;;;0.10;;
35943;SDS011;22029;54.774;9.434;2023-07-08T00:31:24;0.10;;;0.10;;
35943;SDS011;22029;54.774;9.434;2023-07-08T00:33:54;0.07;;;0.07;;
35943;SDS011;22029;54.774;9.434;2023-07-08T00:36:26;0.10;;;0.10;;
35943;SDS011;22029;54.774;9.434;2023-07-08T00:38:56;0.10;;;0.10;;
35943;SDS011;22029;54.774;9.434;2023-07-08T00:41:27;0.10;;;0.10;;
35943;SDS011;22029;54.774;9.434;2023-07-08T00:43:58;0.10;;;0.10;;
35943;SDS011;22029;54.774;9.434;2023-07-08T00:46:38;0.10;;;0.10;;
35943;SDS011;22029;54.774;9.434;2023-07-08T00:49:15;0.03;;;0.03;;
35943;SDS011;22029;54.774;9.434;2023-07-08T00:51:46;0.10;;;0.10;;
35943;SDS011;22029;54.774;9.434;2023-07-08T00:54:17;0.10;;;0.10;;
35943;SDS011;22029;54.774;9.434;2023-07-08T00:56:49;0.10;;;0.10;;
35943;SDS011;22029;54.774;9.434;2023-07-08T00:59:21;0.10;;;0.10;;
35943;SDS011;22029;54.774;9.434;2023-07-08T01:01:52;0.10;;;0.10;;
35943;SDS011;22029;54.774;9.434;2023-07-08T01:04:23;0.10;;;0.10;;
35943;SDS011;22029;54.774;9.434;2023-07-08T01:06:54;0.10;;;0.10;;
35943;SDS011;22029;54.774;9.434;2023-07-08T01:09:26;0.10;;;0.10;;
35943;SDS011;22029;54.774;9.434;2023-07-08T01:11:58;0.10;;;0.10;;
35943;SDS011;22029;54.774;9.434;2023-07-08T01:14:30;0.10;;;0.10;;
35943;SDS011;22029;54.774;9.434;2023-07-08T01:17:01;0.10;;;0.10;;
35943;SDS011;22029;54.774;9.434;2023-07-08T01:19:31;0.10;;;0.10;;
35943;SDS011;22029;54.774;9.434;2023-07-08T01:22:02;0.10;;;0.10;;
35943;SDS011;22029;54.774;9.434;2023-07-08T01:24:33;0.10;;;0.10;;
35943;SDS011;22029;54.774;9.434;2023-07-08T01:27:05;0.10;;;0.10;;
35943;SDS011;22029;54.774;9.434;2023-07-08T01:29:36;0.10;;;0.10;;
35943;SDS011;22029;54.774;9.434;2023-07-08T01:32:06;0.10;;;0.10;;
35943;SDS011;22029;54.774;9.434;2023-07-08T01:34:35;0.10;;;0.10;;
35943;SDS011;22029;54.774;9.434;2023-07-08T01:37:09;0.10;;;0.10;;
35943;SDS011;22029;54.774;9.434;2023-07-08T01:39:40;0.10;;;0.10;;
35943;SDS011;22029;54.774;9.434;2023-07-08T01:42:09;0.10;;;0.10;;
35943;SDS011;22029;54.774;9.434;2023-07-08T01:44:39;0.20;;;0.20;;
35943;SDS011;22029;54.774;9.434;2023-07-08T01:47:09;0.10;;;0.10;;
35943;SDS011;22029;54.774;9.434;2023-07-08T01:49:40;0.10;;;0.10;;
35943;SDS011;22029;54.774;9.434;2023-07-08T01:52:12;0.10;;;0.10;;
35943;SDS011;22029;54.774;9.434;2023-07-08T01:54:42;0.10;;;0.10;;
35943;SDS011;22029;54.774;9.434;2023-07-08T01:57:11;0.10;;;0.10;;
35943;SDS011;22029;54.774;9.434;2023-07-08T01:59:41;0.10;;;0.10;;
35943;SDS011;22029;54.774;9.434;2023-07-08T02:02:10;0.10;;;0.10;;
35943;SDS011;22029;54.774;9.434;2023-07-08T02:04:40;0.10;;;0.10;;
35943;SDS011;22029;54.774;9.434;2023-07-08T02:07:14;0.10;;;0.10;;
35943;SDS011;22029;54.774;9.434;2023-07-08T02:09:43;0.10;;;0.10;;
35943;SDS011;22029;54.774;9.434;2023-07-08T02:12:13;0.10;;;0.10;;
35943;SDS011;22029;54.774;9.434;2023-07-08T02:14:43;0.20;;;0.20;;
35943;SDS011;22029;54.774;9.434;2023-07-08T02:17:12;0.10;;;0.10;;
35943;SDS011;22029;54.774;9.434;2023-07-08T02:19:44;0.10;;;0.10;;
35943;SDS011;22029;54.774;9.434;2023-07-08T02:22:15;0.10;;;0.10;;
35943;SDS011;22029;54.774;9.434;2023-07-08T02:24:45;0.10;;;0.10;;
35943;SDS011;22029;54.774;9.434;2023-07-08T02:27:15;0.10;;;0.10;;
35943;SDS011;22029;54.774;9.434;2023-07-08T02:29:45;0.10;;;0.10;;
35943;SDS011;22029;54.774;9.434;2023-07-08T02:32:14;0.10;;;0.10;;
35943;SDS011;22029;54.774;9.434;2023-07-08T02:34:44;0.10;;;0.10;;
35943;SDS011;22029;54.774;9.434;2023-07-08T02:37:13;0.10;;;0.10;;
35943;SDS011;22029;54.774;9.434;2023-07-08T02:39:46;0.20;;;0.20;;
35943;SDS011;22029;54.774;9.434;2023-07-08T02:42:15;0.10;;;0.10;;
35943;SDS011;22029;54.774;9.434;2023-07-08T02:44:45;0.20;;;0.20;;
35943;SDS011;22029;54.774;9.434;2023-07-08T02:47:14;0.20;;;0.20;;
35943;SDS011;22029;54.774;9.434;2023-07-08T02:49:44;0.20;;;0.20;;
35943;SDS011;22029;54.774;9.434;2023-07-08T02:52:14;0.10;;;0.10;;
35943;SDS011;22029;54.774;9.434;2023-07-08T02:54:43;0.10;;;0.10;;
35943;SDS011;22029;54.774;9.434;2023-07-08T02:57:14;0.10;;;0.10;;
35943;SDS011;22029;54.774;9.434;2023-07-08T02:59:44;0.10;;;0.10;;
35943;SDS011;22029;54.774;9.434;2023-07-08T03:02:14;0.10;;;0.10;;
35943;SDS011;22029;54.774;9.434;2023-07-08T03:04:43;0.10;;;0.10;;
35943;SDS011;22029;54.774;9.434;2023-07-08T03:07:13;0.20;;;0.20;;
35943;SDS011;22029;54.774;9.434;2023-07-08T03:10:38;0.06;;;0.06;;
35943;SDS011;22029;54.774;9.434;2023-07-08T03:13:21;0.10;;;0.10;;
35943;SDS011;22029;54.774;9.434;2023-07-08T03:20:56;0.10;;;0.10;;
35943;SDS011;22029;54.774;9.434;2023-07-08T03:24:47;0.08;;;0.08;;
35943;SDS011;22029;54.774;9.434;2023-07-08T03:31:58;0.10;;;0.10;;
35943;SDS011;22029;54.774;9.434;2023-07-08T03:35:50;0.08;;;0.08;;
35943;SDS011;22029;54.774;9.434;2023-07-08T03:39:39;0.10;;;0.10;;
35943;SDS011;22029;54.774;9.434;2023-07-08T04:52:28;0.10;;;0.10;;
35943;SDS011;22029;54.774;9.434;2023-07-08T04:56:20;0.10;;;0.10;;
35943;SDS011;22029;54.774;9.434;2023-07-08T04:59:28;0.10;;;0.10;;
35943;SDS011;22029;54.774;9.434;2023-07-08T05:08:22;0.00;;;0.00;;
35943;SDS011;22029;54.774;9.434;2023-07-08T05:12:08;0.00;;;0.00;;
35943;SDS011;22029;54.774;9.434;2023-07-08T05:16:12;0.05;;;0.05;;
35943;SDS011;22029;54.774;9.434;2023-07-08T05:20:05;0.10;;;0.10;;
35943;SDS011;22029;54.774;9.434;2023-07-08T05:23:56;0.00;;;0.00;;
35943;SDS011;22029;54.774;9.434;2023-07-08T07:45:46;0.00;;;0.00;;
35943;SDS011;22029;54.774;9.434;2023-07-08T07:49:24;0.00;;;0.00;;
35943;SDS011;22029;54.774;9.434;2023-07-08T07:51:54;0.00;;;0.00;;
35943;SDS011;22029;54.774;9.434;2023-07-08T07:54:24;0.00;;;0.00;;
35943;SDS011;22029;54.774;9.434;2023-07-08T07:56:54;0.00;;;0.00;;
35943;SDS011;22029;54.774;9.434;2023-07-08T07:59:23;0.00;;;0.00;;
35943;SDS011;22029;54.774;9.434;2023-07-08T08:01:54;0.00;;;0.00;;
35943;SDS011;22029;54.774;9.434;2023-07-08T08:04:24;0.00;;;0.00;;
35943;SDS011;22029;54.774;9.434;2023-07-08T08:08:09;0.00;;;0.00;;
35943;SDS011;22029;54.774;9.434;2023-07-08T08:11:58;0.00;;;0.00;;
35943;SDS011;22029;54.774;9.434;2023-07-08T08:27:51;0.00;;;0.00;;
35943;SDS011;22029;54.774;9.434;2023-07-08T08:31:44;0.00;;;0.00;;
35943;SDS011;22029;54.774;9.434;2023-07-08T08:35:34;0.00;;;0.00;;
35943;SDS011;22029;54.774;9.434;2023-07-08T08:43:09;0.00;;;0.00;;
35943;SDS011;22029;54.774;9.434;2023-07-08T08:46:25;0.00;;;0.00;;
35943;SDS011;22029;54.774;9.434;2023-07-08T08:48:59;0.00;;;0.00;;
35943;SDS011;22029;54.774;9.434;2023-07-08T08:51:31;0.10;;;0.10;;
35943;SDS011;22029;54.774;9.434;2023-07-08T08:54:01;0.00;;;0.00;;
35943;SDS011;22029;54.774;9.434;2023-07-08T08:56:33;0.10;;;0.10;;
35943;SDS011;22029;54.774;9.434;2023-07-08T08:59:07;0.00;;;0.00;;
35943;SDS011;22029;54.774;9.434;2023-07-08T09:01:40;0.10;;;0.10;;
35943;SDS011;22029;54.774;9.434;2023-07-08T09:04:17;0.10;;;0.10;;
35943;SDS011;22029;54.774;9.434;2023-07-08T09:06:49;0.10;;;0.10;;
35943;SDS011;22029;54.774;9.434;2023-07-08T09:09:23;0.10;;;0.10;;
35943;SDS011;22029;54.774;9.434;2023-07-08T09:11:54;0.10;;;0.10;;
35943;SDS011;22029;54.774;9.434;2023-07-08T09:14:28;0.10;;;0.10;;
35943;SDS011;22029;54.774;9.434;2023-07-08T09:17:01;0.10;;;0.10;;
35943;SDS011;22029;54.774;9.434;2023-07-08T09:19:35;0.10;;;0.10;;
35943;SDS011;22029;54.774;9.434;2023-07-08T09:22:11;0.10;;;0.10;;
35943;SDS011;22029;54.774;9.434;2023-07-08T09:26:01;0.15;;;0.15;;
35943;SDS011;22029;54.774;9.434;2023-07-08T09:38:02;0.20;;;0.20;;
35943;SDS011;22029;54.774;9.434;2023-07-08T09:40:35;0.20;;;0.20;;
35943;SDS011;22029;54.774;9.434;2023-07-08T09:43:10;0.20;;;0.20;;
35943;SDS011;22029;54.774;9.434;2023-07-08T09:45:45;0.20;;;0.20;;
35943;SDS011;22029;54.774;9.434;2023-07-08T09:48:21;0.20;;;0.20;;
35943;SDS011;22029;54.774;9.434;2023-07-08T09:50:51;0.30;;;0.30;;
35943;SDS011;22029;54.774;9.434;2023-07-08T09:53:22;0.20;;;0.20;;
35943;SDS011;22029;54.774;9.434;2023-07-08T09:55:56;0.20;;;0.20;;
35943;SDS011;22029;54.774;9.434;2023-07-08T09:58:27;0.20;;;0.20;;
35943;SDS011;22029;54.774;9.434;2023-07-08T10:00:59;0.20;;;0.20;;
35943;SDS011;22029;54.774;9.434;2023-07-08T10:03:31;0.30;;;0.30;;
35943;SDS011;22029;54.774;9.434;2023-07-08T10:06:03;0.40;;;0.40;;
35943;SDS011;22029;54.774;9.434;2023-07-08T10:08:37;0.40;;;0.40;;
35943;SDS011;22029;54.774;9.434;2023-07-08T10:11:12;0.30;;;0.30;;
35943;SDS011;22029;54.774;9.434;2023-07-08T10:13:43;0.30;;;0.30;;
35943;SDS011;22029;54.774;9.434;2023-07-08T10:16:30;0.30;;;0.30;;
35943;SDS011;22029;54.774;9.434;2023-07-08T10:19:01;0.40;;;0.40;;
35943;SDS011;22029;54.774;9.434;2023-07-08T10:21:31;0.30;;;0.30;;
35943;SDS011;22029;54.774;9.434;2023-07-08T10:24:09;0.40;;;0.40;;
35943;SDS011;22029;54.774;9.434;2023-07-08T10:26:40;0.40;;;0.40;;
35943;SDS011;22029;54.774;9.434;2023-07-08T10:29:14;0.20;;;0.20;;
35943;SDS011;22029;54.774;9.434;2023-07-08T10:31:48;0.40;;;0.40;;
35943;SDS011;22029;54.774;9.434;2023-07-08T10:34:26;0.30;;;0.30;;
35943;SDS011;22029;54.774;9.434;2023-07-08T10:36:59;0.20;;;0.20;;
35943;SDS011;22029;54.774;9.434;2023-07-08T10:39:37;0.30;;;0.30;;
35943;SDS011;22029;54.774;9.434;2023-07-08T10:42:15;0.20;;;0.20;;
35943;SDS011;22029;54.774;9.434;2023-07-08T10:44:57;0.23;;;0.23;;
35943;SDS011;22029;54.774;9.434;2023-07-08T10:47:31;0.20;;;0.20;;
35943;SDS011;22029;54.774;9.434;2023-07-08T10:50:07;0.30;;;0.30;;
35943;SDS011;22029;54.774;9.434;2023-07-08T10:52:45;0.30;;;0.30;;
35943;SDS011;22029;54.774;9.434;2023-07-08T10:55:20;0.40;;;0.40;;
35943;SDS011;22029;54.774;9.434;2023-07-08T10:58:04;0.30;;;0.30;;
35943;SDS011;22029;54.774;9.434;2023-07-08T11:00:42;0.40;;;0.40;;
35943;SDS011;22029;54.774;9.434;2023-07-08T11:03:20;0.40;;;0.40;;
35943;SDS011;22029;54.774;9.434;2023-07-08T11:05:50;0.30;;;0.30;;
35943;SDS011;22029;54.774;9.434;2023-07-08T11:08:25;0.30;;;0.30;;
35943;SDS011;22029;54.774;9.434;2023-07-08T11:10:58;0.30;;;0.30;;
35943;SDS011;22029;54.774;9.434;2023-07-08T11:13:44;0.33;;;0.33;;
35943;SDS011;22029;54.774;9.434;2023-07-08T11:16:15;0.40;;;0.40;;
35943;SDS011;22029;54.774;9.434;2023-07-08T11:18:48;0.30;;;0.30;;
35943;SDS011;22029;54.774;9.434;2023-07-08T11:21:19;0.50;;;0.50;;
35943;SDS011;22029;54.774;9.434;2023-07-08T11:23:54;0.40;;;0.40;;
35943;SDS011;22029;54.774;9.434;2023-07-08T11:26:28;0.50;;;0.50;;
35943;SDS011;22029;54.774;9.434;2023-07-08T11:28:58;0.40;;;0.40;;
35943;SDS011;22029;54.774;9.434;2023-07-08T11:31:30;0.30;;;0.30;;
35943;SDS011;22029;54.774;9.434;2023-07-08T11:34:00;0.40;;;0.40;;
35943;SDS011;22029;54.774;9.434;2023-07-08T11:36:30;0.40;;;0.40;;
35943;SDS011;22029;54.774;9.434;2023-07-08T11:39:02;0.50;;;0.50;;
35943;SDS011;22029;54.774;9.434;2023-07-08T11:41:33;0.40;;;0.40;;
35943;SDS011;22029;54.774;9.434;2023-07-08T11:44:03;0.50;;;0.50;;
35943;SDS011;22029;54.774;9.434;2023-07-08T11:46:33;0.40;;;0.40;;
35943;SDS011;22029;54.774;9.434;2023-07-08T11:49:04;0.40;;;0.40;;
35943;SDS011;22029;54.774;9.434;2023-07-08T11:51:34;0.50;;;0.50;;
35943;SDS011;22029;54.774;9.434;2023-07-08T11:54:11;0.40;;;0.40;;
35943;SDS011;22029;54.774;9.434;2023-07-08T11:56:50;0.40;;;0.40;;
35943;SDS011;22029;54.774;9.434;2023-07-08T11:59:29;0.50;;;0.50;;
35943;SDS011;22029;54.774;9.434;2023-07-08T12:02:02;0.50;;;0.50;;
35943;SDS011;22029;54.774;9.434;2023-07-08T12:04:33;0.50;;;0.50;;
35943;SDS011;22029;54.774;9.434;2023-07-08T12:07:14;0.52;;;0.52;;
35943;SDS011;22029;54.774;9.434;2023-07-08T12:09:47;0.60;;;0.60;;
35943;SDS011;22029;54.774;9.434;2023-07-08T12:12:22;0.60;;;0.60;;
35943;SDS011;22029;54.774;9.434;2023-07-08T12:14:53;0.80;;;0.80;;
35943;SDS011;22029;54.774;9.434;2023-07-08T12:17:29;1.00;;;1.00;;
35943;SDS011;22029;54.774;9.434;2023-07-08T12:19:59;1.30;;;1.30;;
35943;SDS011;22029;54.774;9.434;2023-07-08T12:22:32;1.42;;;1.42;;
35943;SDS011;22029;54.774;9.434;2023-07-08T12:25:02;1.50;;;1.50;;
35943;SDS011;22029;54.774;9.434;2023-07-08T12:27:34;1.40;;;1.40;;
35943;SDS011;22029;54.774;9.434;2023-07-08T12:30:04;1.58;;;1.58;;
35943;SDS011;22029;54.774;9.434;2023-07-08T12:32:35;1.70;;;1.70;;
35943;SDS011;22029;54.774;9.434;2023-07-08T12:35:08;1.67;;;1.67;;
35943;SDS011;22029;54.774;9.434;2023-07-08T12:37:44;1.92;;;1.92;;
35943;SDS011;22029;54.774;9.434;2023-07-08T12:40:14;2.10;;;2.10;;
35943;SDS011;22029;54.774;9.434;2023-07-08T12:42:45;2.15;;;2.15;;
35943;SDS011;22029;54.774;9.434;2023-07-08T12:45:16;2.38;;;2.38;;
35943;SDS011;22029;54.774;9.434;2023-07-08T12:47:46;2.58;;;2.47;;
35943;SDS011;22029;54.774;9.434;2023-07-08T12:50:16;2.20;;;2.20;;
35943;SDS011;22029;54.774;9.434;2023-07-08T12:52:46;2.30;;;2.30;;
35943;SDS011;22029;54.774;9.434;2023-07-08T12:55:16;2.30;;;2.30;;
35943;SDS011;22029;54.774;9.434;2023-07-08T12:57:50;2.20;;;2.20;;
35943;SDS011;22029;54.774;9.434;2023-07-08T13:00:22;2.30;;;2.30;;
35943;SDS011;22029;54.774;9.434;2023-07-08T13:02:54;2.80;;;2.70;;
35943;SDS011;22029;54.774;9.434;2023-07-08T13:05:25;2.60;;;2.50;;
35943;SDS011;22029;54.774;9.434;2023-07-08T13:07:55;2.95;;;2.85;;
35943;SDS011;22029;54.774;9.434;2023-07-08T13:10:26;2.85;;;2.75;;
35943;SDS011;22029;54.774;9.434;2023-07-08T13:13:00;2.70;;;2.60;;
35943;SDS011;22029;54.774;9.434;2023-07-08T13:15:32;2.60;;;2.50;;
35943;SDS011;22029;54.774;9.434;2023-07-08T13:18:03;3.00;;;2.90;;
35943;SDS011;22029;54.774;9.434;2023-07-08T13:20:33;3.00;;;2.90;;
35943;SDS011;22029;54.774;9.434;2023-07-08T13:23:02;2.78;;;2.67;;
35943;SDS011;22029;54.774;9.434;2023-07-08T13:25:32;2.92;;;2.83;;
35943;SDS011;22029;54.774;9.434;2023-07-08T13:28:22;3.00;;;2.90;;
35943;SDS011;22029;54.774;9.434;2023-07-08T13:30:53;3.00;;;2.90;;
35943;SDS011;22029;54.774;9.434;2023-07-08T13:33:23;3.00;;;2.90;;
35943;SDS011;22029;54.774;9.434;2023-07-08T13:35:53;2.80;;;2.70;;
35943;SDS011;22029;54.774;9.434;2023-07-08T13:38:24;2.90;;;2.80;;
35943;SDS011;22029;54.774;9.434;2023-07-08T13:40:56;2.80;;;2.70;;
35943;SDS011;22029;54.774;9.434;2023-07-08T13:46:51;3.15;;;3.05;;
35943;SDS011;22029;54.774;9.434;2023-07-08T13:49:23;2.80;;;2.70;;
35943;SDS011;22029;54.774;9.434;2023-07-08T13:52:05;3.10;;;3.00;;
35943;SDS011;22029;54.774;9.434;2023-07-08T13:54:37;3.00;;;2.90;;
35943;SDS011;22029;54.774;9.434;2023-07-08T13:57:09;3.10;;;3.00;;
35943;SDS011;22029;54.774;9.434;2023-07-08T13:59:39;3.33;;;3.22;;
35943;SDS011;22029;54.774;9.434;2023-07-08T14:02:15;3.30;;;3.20;;
35943;SDS011;22029;54.774;9.434;2023-07-08T14:04:45;3.30;;;3.20;;
35943;SDS011;22029;54.774;9.434;2023-07-08T14:07:16;3.50;;;3.40;;
35943;SDS011;22029;54.774;9.434;2023-07-08T14:09:46;3.60;;;3.50;;
35943;SDS011;22029;54.774;9.434;2023-07-08T14:12:15;3.30;;;3.20;;
35943;SDS011;22029;54.774;9.434;2023-07-08T14:14:45;3.20;;;3.10;;
35943;SDS011;22029;54.774;9.434;2023-07-08T14:17:18;3.10;;;3.00;;
35943;SDS011;22029;54.774;9.434;2023-07-08T14:19:48;3.05;;;2.95;;
35943;SDS011;22029;54.774;9.434;2023-07-08T14:22:22;3.10;;;3.00;;
35943;SDS011;22029;54.774;9.434;2023-07-08T14:24:52;3.00;;;2.90;;
35943;SDS011;22029;54.774;9.434;2023-07-08T14:27:22;3.00;;;2.90;;
35943;SDS011;22029;54.774;9.434;2023-07-08T14:29:52;2.70;;;2.60;;
35943;SDS011;22029;54.774;9.434;2023-07-08T14:32:24;3.30;;;3.20;;
35943;SDS011;22029;54.774;9.434;2023-07-08T14:34:57;3.10;;;3.00;;
35943;SDS011;22029;54.774;9.434;2023-07-08T14:37:27;2.90;;;2.80;;
35943;SDS011;22029;54.774;9.434;2023-07-08T14:39:57;3.10;;;3.00;;
35943;SDS011;22029;54.774;9.434;2023-07-08T14:42:27;3.20;;;3.10;;
35943;SDS011;22029;54.774;9.434;2023-07-08T14:44:56;3.50;;;3.40;;
35943;SDS011;22029;54.774;9.434;2023-07-08T14:47:27;3.30;;;3.20;;
35943;SDS011;22029;54.774;9.434;2023-07-08T14:49:57;3.33;;;3.22;;
35943;SDS011;22029;54.774;9.434;2023-07-08T14:52:27;3.40;;;3.30;;
35943;SDS011;22029;54.774;9.434;2023-07-08T14:54:58;3.30;;;3.20;;
35943;SDS011;22029;54.774;9.434;2023-07-08T14:57:28;3.50;;;3.40;;
35943;SDS011;22029;54.774;9.434;2023-07-08T15:02:55;3.60;;;3.50;;
35943;SDS011;22029;54.774;9.434;2023-07-08T15:05:26;3.60;;;3.50;;
35943;SDS011;22029;54.774;9.434;2023-07-08T15:07:56;3.45;;;3.35;;
35943;SDS011;22029;54.774;9.434;2023-07-08T15:10:28;3.60;;;3.50;;
35943;SDS011;22029;54.774;9.434;2023-07-08T15:12:58;3.30;;;3.20;;
35943;SDS011;22029;54.774;9.434;2023-07-08T15:15:29;3.20;;;3.10;;
35943;SDS011;22029;54.774;9.434;2023-07-08T15:18:01;3.85;;;3.75;;
35943;SDS011;22029;54.774;9.434;2023-07-08T15:20:32;3.70;;;3.60;;
35943;SDS011;22029;54.774;9.434;2023-07-08T15:23:02;3.75;;;3.65;;
35943;SDS011;22029;54.774;9.434;2023-07-08T15:25:31;3.38;;;3.28;;
35943;SDS011;22029;54.774;9.434;2023-07-08T15:28:02;3.60;;;3.50;;
35943;SDS011;22029;54.774;9.434;2023-07-08T15:30:32;3.60;;;3.50;;
35943;SDS011;22029;54.774;9.434;2023-07-08T15:33:03;3.70;;;3.60;;
35943;SDS011;22029;54.774;9.434;2023-07-08T15:35:32;3.60;;;3.50;;
35943;SDS011;22029;54.774;9.434;2023-07-08T15:38:02;3.58;;;3.47;;
35943;SDS011;22029;54.774;9.434;2023-07-08T15:40:32;3.90;;;3.80;;
35943;SDS011;22029;54.774;9.434;2023-07-08T15:43:02;3.50;;;3.40;;
35943;SDS011;22029;54.774;9.434;2023-07-08T15:45:34;3.65;;;3.55;;
35943;SDS011;22029;54.774;9.434;2023-07-08T15:48:07;3.80;;;3.70;;
35943;SDS011;22029;54.774;9.434;2023-07-08T15:50:41;3.70;;;3.60;;
35943;SDS011;22029;54.774;9.434;2023-07-08T15:53:11;3.90;;;3.80;;
35943;SDS011;22029;54.774;9.434;2023-07-08T15:55:41;3.90;;;3.80;;
35943;SDS011;22029;54.774;9.434;2023-07-08T15:58:12;4.00;;;3.90;;
35943;SDS011;22029;54.774;9.434;2023-07-08T16:00:43;4.60;;;4.50;;
35943;SDS011;22029;54.774;9.434;2023-07-08T16:03:17;4.55;;;4.45;;
35943;SDS011;22029;54.774;9.434;2023-07-08T16:05:51;4.65;;;4.55;;
35943;SDS011;22029;54.774;9.434;2023-07-08T16:08:21;4.50;;;4.40;;
35943;SDS011;22029;54.774;9.434;2023-07-08T16:10:53;4.50;;;4.40;;
35943;SDS011;22029;54.774;9.434;2023-07-08T16:13:25;4.20;;;4.10;;
35943;SDS011;22029;54.774;9.434;2023-07-08T16:15:55;4.10;;;4.00;;
35943;SDS011;22029;54.774;9.434;2023-07-08T16:18:27;4.20;;;4.10;;
35943;SDS011;22029;54.774;9.434;2023-07-08T16:20:56;4.20;;;4.10;;
35943;SDS011;22029;54.774;9.434;2023-07-08T16:23:26;4.33;;;4.23;;
35943;SDS011;22029;54.774;9.434;2023-07-08T16:25:56;3.90;;;3.80;;
35943;SDS011;22029;54.774;9.434;2023-07-08T16:28:27;4.00;;;3.90;;
35943;SDS011;22029;54.774;9.434;2023-07-08T16:30:57;3.97;;;3.87;;
35943;SDS011;22029;54.774;9.434;2023-07-08T16:33:29;4.10;;;4.00;;
35943;SDS011;22029;54.774;9.434;2023-07-08T16:35:59;3.70;;;3.60;;
35943;SDS011;22029;54.774;9.434;2023-07-08T16:38:28;3.70;;;3.60;;
35943;SDS011;22029;54.774;9.434;2023-07-08T16:40:58;3.60;;;3.50;;
35943;SDS011;22029;54.774;9.434;2023-07-08T16:43:28;3.80;;;3.70;;
35943;SDS011;22029;54.774;9.434;2023-07-08T16:45:59;3.20;;;3.10;;
35943;SDS011;22029;54.774;9.434;2023-07-08T16:48:31;3.47;;;3.37;;
35943;SDS011;22029;54.774;9.434;2023-07-08T16:51:00;3.10;;;3.00;;
35943;SDS011;22029;54.774;9.434;2023-07-08T16:53:30;3.30;;;3.20;;
35943;SDS011;22029;54.774;9.434;2023-07-08T16:56:00;3.20;;;3.10;;
35943;SDS011;22029;54.774;9.434;2023-07-08T16:58:30;3.00;;;2.90;;
35943;SDS011;22029;54.774;9.434;2023-07-08T17:01:00;2.70;;;2.60;;
35943;SDS011;22029;54.774;9.434;2023-07-08T17:03:31;2.70;;;2.60;;
35943;SDS011;22029;54.774;9.434;2023-07-08T17:06:02;2.80;;;2.70;;
35943;SDS011;22029;54.774;9.434;2023-07-08T17:08:32;2.57;;;2.47;;
35943;SDS011;22029;54.774;9.434;2023-07-08T17:11:02;2.70;;;2.60;;
35943;SDS011;22029;54.774;9.434;2023-07-08T17:13:31;2.70;;;2.60;;
35943;SDS011;22029;54.774;9.434;2023-07-08T17:16:01;2.60;;;2.50;;
35943;SDS011;22029;54.774;9.434;2023-07-08T17:18:33;2.50;;;2.40;;
35943;SDS011;22029;54.774;9.434;2023-07-08T17:21:04;2.60;;;2.50;;
35943;SDS011;22029;54.774;9.434;2023-07-08T17:23:38;2.30;;;2.30;;
35943;SDS011;22029;54.774;9.434;2023-07-08T17:26:07;2.20;;;2.20;;
35943;SDS011;22029;54.774;9.434;2023-07-08T17:28:37;2.27;;;2.27;;
35943;SDS011;22029;54.774;9.434;2023-07-08T17:31:08;2.20;;;2.20;;
35943;SDS011;22029;54.774;9.434;2023-07-08T17:33:42;2.10;;;2.10;;
35943;SDS011;22029;54.774;9.434;2023-07-08T17:36:11;2.10;;;2.10;;
35943;SDS011;22029;54.774;9.434;2023-07-08T17:38:42;2.10;;;2.10;;
35943;SDS011;22029;54.774;9.434;2023-07-08T17:41:14;2.13;;;2.13;;
35943;SDS011;22029;54.774;9.434;2023-07-08T17:43:44;2.10;;;2.10;;
35943;SDS011;22029;54.774;9.434;2023-07-08T17:46:15;2.20;;;2.20;;
35943;SDS011;22029;54.774;9.434;2023-07-08T17:48:48;2.10;;;2.10;;
35943;SDS011;22029;54.774;9.434;2023-07-08T17:51:18;2.10;;;2.10;;
35943;SDS011;22029;54.774;9.434;2023-07-08T17:53:48;2.00;;;2.00;;
35943;SDS011;22029;54.774;9.434;2023-07-08T17:56:21;2.20;;;2.20;;
35943;SDS011;22029;54.774;9.434;2023-07-08T17:58:53;2.00;;;2.00;;
35943;SDS011;22029;54.774;9.434;2023-07-08T18:01:23;2.00;;;2.00;;
35943;SDS011;22029;54.774;9.434;2023-07-08T18:03:55;1.90;;;1.90;;
35943;SDS011;22029;54.774;9.434;2023-07-08T18:06:25;1.80;;;1.80;;
35943;SDS011;22029;54.774;9.434;2023-07-08T18:08:54;2.00;;;2.00;;
35943;SDS011;22029;54.774;9.434;2023-07-08T18:11:24;2.00;;;2.00;;
35943;SDS011;22029;54.774;9.434;2023-07-08T18:13:54;2.10;;;2.10;;
35943;SDS011;22029;54.774;9.434;2023-07-08T18:16:24;2.10;;;2.10;;
35943;SDS011;22029;54.774;9.434;2023-07-08T18:18:56;2.20;;;2.20;;
35943;SDS011;22029;54.774;9.434;2023-07-08T18:21:26;2.20;;;2.20;;
35943;SDS011;22029;54.774;9.434;2023-07-08T18:23:56;2.70;;;2.60;;
35943;SDS011;22029;54.774;9.434;2023-07-08T18:26:26;2.50;;;2.40;;
35943;SDS011;22029;54.774;9.434;2023-07-08T18:28:58;2.80;;;2.70;;
35943;SDS011;22029;54.774;9.434;2023-07-08T18:31:29;2.70;;;2.60;;
35943;SDS011;22029;54.774;9.434;2023-07-08T18:34:02;2.70;;;2.60;;
35943;SDS011;22029;54.774;9.434;2023-07-08T18:36:35;2.80;;;2.70;;
35943;SDS011;22029;54.774;9.434;2023-07-08T18:39:05;2.80;;;2.70;;
35943;SDS011;22029;54.774;9.434;2023-07-08T18:41:37;2.90;;;2.80;;
35943;SDS011;22029;54.774;9.434;2023-07-08T18:44:10;2.90;;;2.80;;
35943;SDS011;22029;54.774;9.434;2023-07-08T18:46:40;2.80;;;2.70;;
35943;SDS011;22029;54.774;9.434;2023-07-08T18:49:11;2.77;;;2.67;;
35943;SDS011;22029;54.774;9.434;2023-07-08T18:51:41;2.30;;;2.30;;
35943;SDS011;22029;54.774;9.434;2023-07-08T18:54:12;2.30;;;2.30;;
35943;SDS011;22029;54.774;9.434;2023-07-08T18:56:42;2.20;;;2.20;;
35943;SDS011;22029;54.774;9.434;2023-07-08T18:59:12;2.10;;;2.10;;
35943;SDS011;22029;54.774;9.434;2023-07-08T19:01:42;2.10;;;2.10;;
35943;SDS011;22029;54.774;9.434;2023-07-08T19:04:14;2.00;;;2.00;;
35943;SDS011;22029;54.774;9.434;2023-07-08T19:06:46;2.00;;;2.00;;
35943;SDS011;22029;54.774;9.434;2023-07-08T19:09:17;1.80;;;1.80;;
35943;SDS011;22029;54.774;9.434;2023-07-08T19:11:46;1.70;;;1.70;;
35943;SDS011;22029;54.774;9.434;2023-07-08T19:14:16;1.60;;;1.60;;
35943;SDS011;22029;54.774;9.434;2023-07-08T19:16:46;1.63;;;1.63;;
35943;SDS011;22029;54.774;9.434;2023-07-08T19:19:17;1.60;;;1.60;;
35943;SDS011;22029;54.774;9.434;2023-07-08T19:21:47;1.40;;;1.40;;
35943;SDS011;22029;54.774;9.434;2023-07-08T19:24:18;1.10;;;1.10;;
35943;SDS011;22029;54.774;9.434;2023-07-08T19:27:04;0.90;;;0.90;;
35943;SDS011;22029;54.774;9.434;2023-07-08T19:29:34;0.90;;;0.90;;
35943;SDS011;22029;54.774;9.434;2023-07-08T19:32:04;0.80;;;0.80;;
35943;SDS011;22029;54.774;9.434;2023-07-08T19:34:35;0.80;;;0.80;;
35943;SDS011;22029;54.774;9.434;2023-07-08T19:37:05;0.80;;;0.80;;
35943;SDS011;22029;54.774;9.434;2023-07-08T19:39:36;0.70;;;0.70;;
35943;SDS011;22029;54.774;9.434;2023-07-08T19:42:07;0.60;;;0.60;;
35943;SDS011;22029;54.774;9.434;2023-07-08T19:44:38;0.70;;;0.70;;
35943;SDS011;22029;54.774;9.434;2023-07-08T19:47:08;0.60;;;0.60;;
35943;SDS011;22029;54.774;9.434;2023-07-08T19:49:40;0.60;;;0.60;;
35943;SDS011;22029;54.774;9.434;2023-07-08T19:52:10;0.40;;;0.40;;
35943;SDS011;22029;54.774;9.434;2023-07-08T19:54:40;0.50;;;0.50;;